Aviation Digital Data Service (ADDS)

Output produced by METARs form (2332 UTC 18 August 2019)
found at http://www.aviationweather.gov/metar/data/
 
METAR text: UNTT 182300Z 21003MPS 4900 BR NSC 15/14 Q1014 R21/090060 NOSIG RMK QFE746
Conditions at: UNTT (PLOTNIKOVO/TOMSK, RU) observed 2300 UTC 18 August 2019
Temperature: 15.0°C (59°F)
Dewpoint: 14.0°C (57°F) [RH = 94%]
Pressure (altimeter): 29.94 inches Hg (1014.0 mb)
Winds: from the SSW (210 degrees) at 7 MPH (6 knots; 3.1 m/s)
Visibility: 3 miles ( 5 km)
Ceiling: at least 12,000 feet AGL
Clouds: sky clear below 12,000 feet AGL
Weather: BR  (mist)

METAR text: UNTT 182230Z 20002MPS 5000 BR NSC 15/14 Q1014 R21/090060 NOSIG RMK QFE745
Conditions at: UNTT (PLOTNIKOVO/TOMSK, RU) observed 2230 UTC 18 August 2019
Temperature: 15.0°C (59°F)
Dewpoint: 14.0°C (57°F) [RH = 94%]
Pressure (altimeter): 29.94 inches Hg (1014.0 mb)
Winds: from the SSW (200 degrees) at 5 MPH (4 knots; 2.1 m/s)
Visibility: 3 miles ( 5 km)
Ceiling: at least 12,000 feet AGL
Clouds: sky clear below 12,000 feet AGL
Weather: BR  (mist)

METAR text: UNTT 182200Z 19002MPS 4700 BR NSC 14/14 Q1014 R21/090060 NOSIG RMK QFE745
Conditions at: UNTT (PLOTNIKOVO/TOMSK, RU) observed 2200 UTC 18 August 2019
Temperature: 14.0°C (57°F)
Dewpoint: 14.0°C (57°F) [RH = 100%]
Pressure (altimeter): 29.94 inches Hg (1014.0 mb)
Winds: from the S (190 degrees) at 5 MPH (4 knots; 2.1 m/s)
Visibility: 2.92 miles (4.70 km)
Ceiling: at least 12,000 feet AGL
Clouds: sky clear below 12,000 feet AGL
Weather: BR  (mist)

METAR text: UNTT 182130Z 19002MPS 4700 BR NSC 14/14 Q1014 R21/090060 NOSIG RMK QFE745
Conditions at: UNTT (PLOTNIKOVO/TOMSK, RU) observed 2130 UTC 18 August 2019
Temperature: 14.0°C (57°F)
Dewpoint: 14.0°C (57°F) [RH = 100%]
Pressure (altimeter): 29.94 inches Hg (1014.0 mb)
Winds: from the S (190 degrees) at 5 MPH (4 knots; 2.1 m/s)
Visibility: 2.92 miles (4.70 km)
Ceiling: at least 12,000 feet AGL
Clouds: sky clear below 12,000 feet AGL
Weather: BR  (mist)

METAR text: UNTT 182100Z 17001MPS 4000 BR NSC 13/13 Q1014 NOSIG RMK QFE745
Conditions at: UNTT (PLOTNIKOVO/TOMSK, RU) observed 2100 UTC 18 August 2019
Temperature: 13.0°C (55°F)
Dewpoint: 13.0°C (55°F) [RH = 100%]
Pressure (altimeter): 29.94 inches Hg (1014.0 mb)
Winds: from the S (170 degrees) at 2 MPH (2 knots; 1.0 m/s)
Visibility: 2.49 miles (4.01 km)
Ceiling: at least 12,000 feet AGL
Clouds: sky clear below 12,000 feet AGL
Weather: BR  (mist)

METAR text: UNTT 182000Z VRB01MPS 3400 BR NSC 13/13 Q1014 NOSIG RMK QFE746
Conditions at: UNTT (PLOTNIKOVO/TOMSK, RU) observed 2000 UTC 18 August 2019
Temperature: 13.0°C (55°F)
Dewpoint: 13.0°C (55°F) [RH = 100%]
Pressure (altimeter): 29.94 inches Hg (1014.0 mb)
Winds: variable direction winds at 2 MPH (2 knots; 1.0 m/s)
Visibility: 2.11 miles (3.40 km)
Ceiling: at least 12,000 feet AGL
Clouds: sky clear below 12,000 feet AGL
Weather: BR  (mist)

METAR text: UNTT 181900Z 21002MPS 6000 NSC 14/13 Q1014 NOSIG RMK QFE746
Conditions at: UNTT (PLOTNIKOVO/TOMSK, RU) observed 1900 UTC 18 August 2019
Temperature: 14.0°C (57°F)
Dewpoint: 13.0°C (55°F) [RH = 94%]
Pressure (altimeter): 29.94 inches Hg (1014.0 mb)
Winds: from the SSW (210 degrees) at 5 MPH (4 knots; 2.1 m/s)
Visibility: 4 miles ( 6 km)
Ceiling: at least 12,000 feet AGL
Clouds: sky clear below 12,000 feet AGL
Weather: no significant weather observed at this time

METAR text: UNTT 181800Z 12001MPS 5000 BR NSC 15/14 Q1014 NOSIG RMK QFE746
Conditions at: UNTT (PLOTNIKOVO/TOMSK, RU) observed 1800 UTC 18 August 2019
Temperature: 15.0°C (59°F)
Dewpoint: 14.0°C (57°F) [RH = 94%]
Pressure (altimeter): 29.94 inches Hg (1014.0 mb)
Winds: from the ESE (120 degrees) at 2 MPH (2 knots; 1.0 m/s)
Visibility: 3 miles ( 5 km)
Ceiling: at least 12,000 feet AGL
Clouds: sky clear below 12,000 feet AGL
Weather: BR  (mist)

METAR text: UNTT 181700Z 20002MPS 6000 NSC 16/14 Q1014 NOSIG RMK QFE746
Conditions at: UNTT (PLOTNIKOVO/TOMSK, RU) observed 1700 UTC 18 August 2019
Temperature: 16.0°C (61°F)
Dewpoint: 14.0°C (57°F) [RH = 88%]
Pressure (altimeter): 29.94 inches Hg (1014.0 mb)
Winds: from the SSW (200 degrees) at 5 MPH (4 knots; 2.1 m/s)
Visibility: 4 miles ( 6 km)
Ceiling: at least 12,000 feet AGL
Clouds: sky clear below 12,000 feet AGL
Weather: no significant weather observed at this time

METAR text: UNTT 181600Z 21002MPS 7000 NSC 17/15 Q1014 NOSIG RMK QFE746
Conditions at: UNTT (PLOTNIKOVO/TOMSK, RU) observed 1600 UTC 18 August 2019
Temperature: 17.0°C (63°F)
Dewpoint: 15.0°C (59°F) [RH = 88%]
Pressure (altimeter): 29.94 inches Hg (1014.0 mb)
Winds: from the SSW (210 degrees) at 5 MPH (4 knots; 2.1 m/s)
Visibility: 4 miles ( 7 km)
Ceiling: at least 12,000 feet AGL
Clouds: sky clear below 12,000 feet AGL
Weather: no significant weather observed at this time

METAR text: UNTT 181500Z 16001MPS 8000 NSC 19/15 Q1014 NOSIG RMK QFE746
Conditions at: UNTT (PLOTNIKOVO/TOMSK, RU) observed 1500 UTC 18 August 2019
Temperature: 19.0°C (66°F)
Dewpoint: 15.0°C (59°F) [RH = 78%]
Pressure (altimeter): 29.94 inches Hg (1014.0 mb)
Winds: from the SSE (160 degrees) at 2 MPH (2 knots; 1.0 m/s)
Visibility: 5 miles ( 8 km)
Ceiling: at least 12,000 feet AGL
Clouds: sky clear below 12,000 feet AGL
Weather: no significant weather observed at this time

METAR text: UNTT 181400Z 29002MPS 8000 NSC 22/14 Q1014 NOSIG RMK QFE745
Conditions at: UNTT (PLOTNIKOVO/TOMSK, RU) observed 1400 UTC 18 August 2019
Temperature: 22.0°C (72°F)
Dewpoint: 14.0°C (57°F) [RH = 60%]
Pressure (altimeter): 29.94 inches Hg (1014.0 mb)
Winds: from the WNW (290 degrees) at 5 MPH (4 knots; 2.1 m/s)
Visibility: 5 miles ( 8 km)
Ceiling: at least 12,000 feet AGL
Clouds: sky clear below 12,000 feet AGL
Weather: no significant weather observed at this time

METAR text: UNTT 181300Z 01002MPS 8000 NSC 23/14 Q1014 NOSIG RMK QFE745
Conditions at: UNTT (PLOTNIKOVO/TOMSK, RU) observed 1300 UTC 18 August 2019
Temperature: 23.0°C (73°F)
Dewpoint: 14.0°C (57°F) [RH = 57%]
Pressure (altimeter): 29.94 inches Hg (1014.0 mb)
Winds: from the N (10 degrees) at 5 MPH (4 knots; 2.1 m/s)
Visibility: 5 miles ( 8 km)
Ceiling: at least 12,000 feet AGL
Clouds: sky clear below 12,000 feet AGL
Weather: no significant weather observed at this time

METAR text: UNTT 181200Z 01001MPS 8000 NSC 24/13 Q1013 R21/090060 NOSIG RMK QFE745
Conditions at: UNTT (PLOTNIKOVO/TOMSK, RU) observed 1200 UTC 18 August 2019
Temperature: 24.0°C (75°F)
Dewpoint: 13.0°C (55°F) [RH = 50%]
Pressure (altimeter): 29.91 inches Hg (1013.0 mb)
Winds: from the N (10 degrees) at 2 MPH (2 knots; 1.0 m/s)
Visibility: 5 miles ( 8 km)
Ceiling: at least 12,000 feet AGL
Clouds: sky clear below 12,000 feet AGL
Weather: no significant weather observed at this time

METAR text: UNTT 181130Z VRB01MPS 8000 NSC 25/13 Q1013 R21/090060 NOSIG RMK QFE745
Conditions at: UNTT (PLOTNIKOVO/TOMSK, RU) observed 1130 UTC 18 August 2019
Temperature: 25.0°C (77°F)
Dewpoint: 13.0°C (55°F) [RH = 47%]
Pressure (altimeter): 29.91 inches Hg (1013.0 mb)
Winds: variable direction winds at 2 MPH (2 knots; 1.0 m/s)
Visibility: 5 miles ( 8 km)
Ceiling: at least 12,000 feet AGL
Clouds: sky clear below 12,000 feet AGL
Weather: no significant weather observed at this time

METAR text: UNTT 181100Z 36002MPS 8000 NSC 25/13 Q1013 R21/090060 NOSIG RMK QFE745
Conditions at: UNTT (PLOTNIKOVO/TOMSK, RU) observed 1100 UTC 18 August 2019
Temperature: 25.0°C (77°F)
Dewpoint: 13.0°C (55°F) [RH = 47%]
Pressure (altimeter): 29.91 inches Hg (1013.0 mb)
Winds: from the N (360 degrees) at 5 MPH (4 knots; 2.1 m/s)
Visibility: 5 miles ( 8 km)
Ceiling: at least 12,000 feet AGL
Clouds: sky clear below 12,000 feet AGL
Weather: no significant weather observed at this time

METAR text: UNTT 181030Z VRB01MPS 7000 NSC 25/12 Q1013 R21/090060 NOSIG RMK QFE745
Conditions at: UNTT (PLOTNIKOVO/TOMSK, RU) observed 1030 UTC 18 August 2019
Temperature: 25.0°C (77°F)
Dewpoint: 12.0°C (54°F) [RH = 44%]
Pressure (altimeter): 29.91 inches Hg (1013.0 mb)
Winds: variable direction winds at 2 MPH (2 knots; 1.0 m/s)
Visibility: 4 miles ( 7 km)
Ceiling: at least 12,000 feet AGL
Clouds: sky clear below 12,000 feet AGL
Weather: no significant weather observed at this time

METAR text: UNTT 181000Z 36002MPS 7000 NSC 24/14 Q1013 R21/090060 NOSIG RMK QFE745
Conditions at: UNTT (PLOTNIKOVO/TOMSK, RU) observed 1000 UTC 18 August 2019
Temperature: 24.0°C (75°F)
Dewpoint: 14.0°C (57°F) [RH = 54%]
Pressure (altimeter): 29.91 inches Hg (1013.0 mb)
Winds: from the N (360 degrees) at 5 MPH (4 knots; 2.1 m/s)
Visibility: 4 miles ( 7 km)
Ceiling: at least 12,000 feet AGL
Clouds: sky clear below 12,000 feet AGL
Weather: no significant weather observed at this time

METAR text: UNTT 180930Z 07002MPS 020V140 7000 NSC 25/12 Q1013 R21/090060 NOSIG RMK QFE745
Conditions at: UNTT (PLOTNIKOVO/TOMSK, RU) observed 0930 UTC 18 August 2019
Temperature: 25.0°C (77°F)
Dewpoint: 12.0°C (54°F) [RH = 44%]
Pressure (altimeter): 29.91 inches Hg (1013.0 mb)
Winds: from the ENE (70 degrees) at 5 MPH (4 knots; 2.1 m/s)
Visibility: 4 miles ( 7 km)
Ceiling: at least 12,000 feet AGL
Clouds: sky clear below 12,000 feet AGL
Weather: no significant weather observed at this time

METAR text: UNTT 180900Z 05003MPS 020V120 7000 NSC 24/13 Q1013 R21/090060 NOSIG RMK QFE745
Conditions at: UNTT (PLOTNIKOVO/TOMSK, RU) observed 0900 UTC 18 August 2019
Temperature: 24.0°C (75°F)
Dewpoint: 13.0°C (55°F) [RH = 50%]
Pressure (altimeter): 29.91 inches Hg (1013.0 mb)
Winds: from the NE (50 degrees) at 7 MPH (6 knots; 3.1 m/s)
Visibility: 4 miles ( 7 km)
Ceiling: at least 12,000 feet AGL
Clouds: sky clear below 12,000 feet AGL
Weather: no significant weather observed at this time

METAR text: UNTT 180830Z VRB01MPS 7000 NSC 25/13 Q1013 R21/090060 NOSIG RMK QFE745
Conditions at: UNTT (PLOTNIKOVO/TOMSK, RU) observed 0830 UTC 18 August 2019
Temperature: 25.0°C (77°F)
Dewpoint: 13.0°C (55°F) [RH = 47%]
Pressure (altimeter): 29.91 inches Hg (1013.0 mb)
Winds: variable direction winds at 2 MPH (2 knots; 1.0 m/s)
Visibility: 4 miles ( 7 km)
Ceiling: at least 12,000 feet AGL
Clouds: sky clear below 12,000 feet AGL
Weather: no significant weather observed at this time

METAR text: UNTT 180800Z VRB02MPS 6000 FEW040 25/13 Q1013 R21/090060 NOSIG RMK QFE745
Conditions at: UNTT (PLOTNIKOVO/TOMSK, RU) observed 0800 UTC 18 August 2019
Temperature: 25.0°C (77°F)
Dewpoint: 13.0°C (55°F) [RH = 47%]
Pressure (altimeter): 29.91 inches Hg (1013.0 mb)
Winds: variable direction winds at 5 MPH (4 knots; 2.1 m/s)
Visibility: 4 miles ( 6 km)
Ceiling: at least 12,000 feet AGL
Clouds: few clouds at 4000 feet AGL
Weather: no significant weather observed at this time

METAR text: UNTT 180730Z 06002MPS 350V100 7000 FEW040 25/13 Q1013 R21/090060 NOSIG RMK QFE745
Conditions at: UNTT (PLOTNIKOVO/TOMSK, RU) observed 0730 UTC 18 August 2019
Temperature: 25.0°C (77°F)
Dewpoint: 13.0°C (55°F) [RH = 47%]
Pressure (altimeter): 29.91 inches Hg (1013.0 mb)
Winds: from the ENE (60 degrees) at 5 MPH (4 knots; 2.1 m/s)
Visibility: 4 miles ( 7 km)
Ceiling: at least 12,000 feet AGL
Clouds: few clouds at 4000 feet AGL
Weather: no significant weather observed at this time

METAR text: UNTT 180700Z 12002MPS 050V200 6000 FEW040 25/14 Q1013 R21/090060 NOSIG RMK QFE745
Conditions at: UNTT (PLOTNIKOVO/TOMSK, RU) observed 0700 UTC 18 August 2019
Temperature: 25.0°C (77°F)
Dewpoint: 14.0°C (57°F) [RH = 50%]
Pressure (altimeter): 29.91 inches Hg (1013.0 mb)
Winds: from the ESE (120 degrees) at 5 MPH (4 knots; 2.1 m/s)
Visibility: 4 miles ( 6 km)
Ceiling: at least 12,000 feet AGL
Clouds: few clouds at 4000 feet AGL
Weather: no significant weather observed at this time

METAR text: UNTT 180630Z 06003MPS 6000 FEW039 23/14 Q1014 R21/090060 NOSIG RMK QFE745
Conditions at: UNTT (PLOTNIKOVO/TOMSK, RU) observed 0630 UTC 18 August 2019
Temperature: 23.0°C (73°F)
Dewpoint: 14.0°C (57°F) [RH = 57%]
Pressure (altimeter): 29.94 inches Hg (1014.0 mb)
Winds: from the ENE (60 degrees) at 7 MPH (6 knots; 3.1 m/s)
Visibility: 4 miles ( 6 km)
Ceiling: at least 12,000 feet AGL
Clouds: few clouds at 3900 feet AGL
Weather: no significant weather observed at this time

METAR text: UNTT 180600Z 05003MPS 6000 FEW036 24/14 Q1014 R21/090060 NOSIG RMK QFE745
Conditions at: UNTT (PLOTNIKOVO/TOMSK, RU) observed 0600 UTC 18 August 2019
Temperature: 24.0°C (75°F)
Dewpoint: 14.0°C (57°F) [RH = 54%]
Pressure (altimeter): 29.94 inches Hg (1014.0 mb)
Winds: from the NE (50 degrees) at 7 MPH (6 knots; 3.1 m/s)
Visibility: 4 miles ( 6 km)
Ceiling: at least 12,000 feet AGL
Clouds: few clouds at 3600 feet AGL
Weather: no significant weather observed at this time

METAR text: UNTT 180530Z 05003MPS 020V110 6000 SCT030 24/14 Q1014 R21/090060 NOSIG RMK QFE745
Conditions at: UNTT (PLOTNIKOVO/TOMSK, RU) observed 0530 UTC 18 August 2019
Temperature: 24.0°C (75°F)
Dewpoint: 14.0°C (57°F) [RH = 54%]
Pressure (altimeter): 29.94 inches Hg (1014.0 mb)
Winds: from the NE (50 degrees) at 7 MPH (6 knots; 3.1 m/s)
Visibility: 4 miles ( 6 km)
Ceiling: at least 12,000 feet AGL
Clouds: scattered clouds at 3000 feet AGL
Weather: no significant weather observed at this time

METAR text: UNTT 180500Z 07003MPS 6000 SCT029 23/15 Q1014 R21/090060 NOSIG RMK QFE745
Conditions at: UNTT (PLOTNIKOVO/TOMSK, RU) observed 0500 UTC 18 August 2019
Temperature: 23.0°C (73°F)
Dewpoint: 15.0°C (59°F) [RH = 61%]
Pressure (altimeter): 29.94 inches Hg (1014.0 mb)
Winds: from the ENE (70 degrees) at 7 MPH (6 knots; 3.1 m/s)
Visibility: 4 miles ( 6 km)
Ceiling: at least 12,000 feet AGL
Clouds: scattered clouds at 2900 feet AGL
Weather: no significant weather observed at this time

METAR text: UNTT 180430Z 06003MPS 020V090 6000 NSC 22/15 Q1014 R21/090060 NOSIG RMK QFE746
Conditions at: UNTT (PLOTNIKOVO/TOMSK, RU) observed 0430 UTC 18 August 2019
Temperature: 22.0°C (72°F)
Dewpoint: 15.0°C (59°F) [RH = 65%]
Pressure (altimeter): 29.94 inches Hg (1014.0 mb)
Winds: from the ENE (60 degrees) at 7 MPH (6 knots; 3.1 m/s)
Visibility: 4 miles ( 6 km)
Ceiling: at least 12,000 feet AGL
Clouds: sky clear below 12,000 feet AGL
Weather: no significant weather observed at this time

METAR text: UNTT 180400Z 07003MPS 020V090 6000 NSC 22/16 Q1014 R21/090060 NOSIG RMK QFE746
Conditions at: UNTT (PLOTNIKOVO/TOMSK, RU) observed 0400 UTC 18 August 2019
Temperature: 22.0°C (72°F)
Dewpoint: 16.0°C (61°F) [RH = 69%]
Pressure (altimeter): 29.94 inches Hg (1014.0 mb)
Winds: from the ENE (70 degrees) at 7 MPH (6 knots; 3.1 m/s)
Visibility: 4 miles ( 6 km)
Ceiling: at least 12,000 feet AGL
Clouds: sky clear below 12,000 feet AGL
Weather: no significant weather observed at this time

METAR text: UNTT 180330Z 05002MPS 330V080 6000 NSC 21/16 Q1014 R21/090060 NOSIG RMK QFE746
Conditions at: UNTT (PLOTNIKOVO/TOMSK, RU) observed 0330 UTC 18 August 2019
Temperature: 21.0°C (70°F)
Dewpoint: 16.0°C (61°F) [RH = 73%]
Pressure (altimeter): 29.94 inches Hg (1014.0 mb)
Winds: from the NE (50 degrees) at 5 MPH (4 knots; 2.1 m/s)
Visibility: 4 miles ( 6 km)
Ceiling: at least 12,000 feet AGL
Clouds: sky clear below 12,000 feet AGL
Weather: no significant weather observed at this time

METAR text: UNTT 180300Z 04002MPS 6000 NSC 19/16 Q1014 R21/090060 NOSIG RMK QFE746
Conditions at: UNTT (PLOTNIKOVO/TOMSK, RU) observed 0300 UTC 18 August 2019
Temperature: 19.0°C (66°F)
Dewpoint: 16.0°C (61°F) [RH = 83%]
Pressure (altimeter): 29.94 inches Hg (1014.0 mb)
Winds: from the NE (40 degrees) at 5 MPH (4 knots; 2.1 m/s)
Visibility: 4 miles ( 6 km)
Ceiling: at least 12,000 feet AGL
Clouds: sky clear below 12,000 feet AGL
Weather: no significant weather observed at this time

METAR text: UNTT 180230Z 03001MPS 5000 BR NSC 17/15 Q1014 R21/090060 NOSIG RMK QFE746
Conditions at: UNTT (PLOTNIKOVO/TOMSK, RU) observed 0230 UTC 18 August 2019
Temperature: 17.0°C (63°F)
Dewpoint: 15.0°C (59°F) [RH = 88%]
Pressure (altimeter): 29.94 inches Hg (1014.0 mb)
Winds: from the NNE (30 degrees) at 2 MPH (2 knots; 1.0 m/s)
Visibility: 3 miles ( 5 km)
Ceiling: at least 12,000 feet AGL
Clouds: sky clear below 12,000 feet AGL
Weather: BR  (mist)

METAR text: UNTT 180200Z 04001MPS 5000 BR NSC 16/14 Q1014 R21/090060 NOSIG RMK QFE746
Conditions at: UNTT (PLOTNIKOVO/TOMSK, RU) observed 0200 UTC 18 August 2019
Temperature: 16.0°C (61°F)
Dewpoint: 14.0°C (57°F) [RH = 88%]
Pressure (altimeter): 29.94 inches Hg (1014.0 mb)
Winds: from the NE (40 degrees) at 2 MPH (2 knots; 1.0 m/s)
Visibility: 3 miles ( 5 km)
Ceiling: at least 12,000 feet AGL
Clouds: sky clear below 12,000 feet AGL
Weather: BR  (mist)

METAR text: UNTT 180130Z 00000MPS 4400 BR NSC 14/14 Q1014 R21/090060 NOSIG RMK QFE746
Conditions at: UNTT (PLOTNIKOVO/TOMSK, RU) observed 0130 UTC 18 August 2019
Temperature: 14.0°C (57°F)
Dewpoint: 14.0°C (57°F) [RH = 100%]
Pressure (altimeter): 29.94 inches Hg (1014.0 mb)
Winds: calm
Visibility: 2.73 miles (4.39 km)
Ceiling: at least 12,000 feet AGL
Clouds: sky clear below 12,000 feet AGL
Weather: BR  (mist)

METAR text: UNTT 180100Z 01001MPS 2900 BR NSC 13/13 Q1014 R21/090060 NOSIG RMK QFE745
Conditions at: UNTT (PLOTNIKOVO/TOMSK, RU) observed 0100 UTC 18 August 2019
Temperature: 13.0°C (55°F)
Dewpoint: 13.0°C (55°F) [RH = 100%]
Pressure (altimeter): 29.94 inches Hg (1014.0 mb)
Winds: from the N (10 degrees) at 2 MPH (2 knots; 1.0 m/s)
Visibility: 1.80 miles (2.90 km)
Ceiling: at least 12,000 feet AGL
Clouds: sky clear below 12,000 feet AGL
Weather: BR  (mist)

METAR text: UNTT 180030Z VRB01MPS 4700 BR NSC 12/12 Q1014 R21/090060 NOSIG RMK QFE745
Conditions at: UNTT (PLOTNIKOVO/TOMSK, RU) observed 0030 UTC 18 August 2019
Temperature: 12.0°C (54°F)
Dewpoint: 12.0°C (54°F) [RH = 100%]
Pressure (altimeter): 29.94 inches Hg (1014.0 mb)
Winds: variable direction winds at 2 MPH (2 knots; 1.0 m/s)
Visibility: 2.92 miles (4.70 km)
Ceiling: at least 12,000 feet AGL
Clouds: sky clear below 12,000 feet AGL
Weather: BR  (mist)

METAR text: UNTT 180000Z 02001MPS 5000 2300S BR SCT010 10/10 Q1014 R21/090060 NOSIG RMK QFE745
Conditions at: UNTT (PLOTNIKOVO/TOMSK, RU) observed 0000 UTC 18 August 2019
Temperature: 10.0°C (50°F)
Dewpoint: 10.0°C (50°F) [RH = 100%]
Pressure (altimeter): 29.94 inches Hg (1014.0 mb)
Winds: from the NNE (20 degrees) at 2 MPH (2 knots; 1.0 m/s)
Visibility: 3 miles ( 5 km)
Ceiling: at least 12,000 feet AGL
Clouds: scattered clouds at 1000 feet AGL
Weather: BR  (mist)

METAR text: UNTT 172330Z 00000MPS 0900 0700W R21/0900U FG NSC 10/10 Q1014 R21/090060 NOSIG RMK QFE745
Conditions at: UNTT (PLOTNIKOVO/TOMSK, RU) observed 2330 UTC 17 August 2019
Temperature: 10.0°C (50°F)
Dewpoint: 10.0°C (50°F) [RH = 100%]
Pressure (altimeter): 29.94 inches Hg (1014.0 mb)
Winds: calm
Visibility: 0.56 miles (0.90 km)
Ceiling: at least 12,000 feet AGL
Clouds: sky clear below 12,000 feet AGL
Weather: FG  (fog)

METAR text: UNTT 172300Z 00000MPS 2500 R21/1600D BR FEW004 11/10 Q1014 R21/090060 NOSIG RMK QFE745
Conditions at: UNTT (PLOTNIKOVO/TOMSK, RU) observed 2300 UTC 17 August 2019
Temperature: 11.0°C (52°F)
Dewpoint: 10.0°C (50°F) [RH = 94%]
Pressure (altimeter): 29.94 inches Hg (1014.0 mb)
Winds: calm
Visibility: 1.55 miles (2.49 km)
Ceiling: at least 12,000 feet AGL
Clouds: few clouds at 400 feet AGL
Weather: BR  (mist)

METAR text: UNTT 172230Z 36001MPS 2500 BR NSC 11/11 Q1013 R21/090060 NOSIG RMK QFE745
Conditions at: UNTT (PLOTNIKOVO/TOMSK, RU) observed 2230 UTC 17 August 2019
Temperature: 11.0°C (52°F)
Dewpoint: 11.0°C (52°F) [RH = 100%]
Pressure (altimeter): 29.91 inches Hg (1013.0 mb)
Winds: from the N (360 degrees) at 2 MPH (2 knots; 1.0 m/s)
Visibility: 1.55 miles (2.49 km)
Ceiling: at least 12,000 feet AGL
Clouds: sky clear below 12,000 feet AGL
Weather: BR  (mist)

METAR text: UNTT 172200Z 00000MPS 2000 R21/P2000D BR NSC 12/12 Q1013 R21/090060 NOSIG RMK QFE745
Conditions at: UNTT (PLOTNIKOVO/TOMSK, RU) observed 2200 UTC 17 August 2019
Temperature: 12.0°C (54°F)
Dewpoint: 12.0°C (54°F) [RH = 100%]
Pressure (altimeter): 29.91 inches Hg (1013.0 mb)
Winds: calm
Visibility: 1.24 miles (2.00 km)
Ceiling: at least 12,000 feet AGL
Clouds: sky clear below 12,000 feet AGL
Weather: BR  (mist)

METAR text: UNTT 172130Z 00000MPS 2400 BR NSC 12/12 Q1013 R03/090060 NOSIG RMK QFE744
Conditions at: UNTT (PLOTNIKOVO/TOMSK, RU) observed 2130 UTC 17 August 2019
Temperature: 12.0°C (54°F)
Dewpoint: 12.0°C (54°F) [RH = 100%]
Pressure (altimeter): 29.91 inches Hg (1013.0 mb)
Winds: calm
Visibility: 1.49 miles (2.40 km)
Ceiling: at least 12,000 feet AGL
Clouds: sky clear below 12,000 feet AGL
Weather: BR  (mist)

METAR text: UNTT 172100Z 04001MPS 3800 BR NSC 12/12 Q1013 R21/090060 NOSIG RMK QFE745
Conditions at: UNTT (PLOTNIKOVO/TOMSK, RU) observed 2100 UTC 17 August 2019
Temperature: 12.0°C (54°F)
Dewpoint: 12.0°C (54°F) [RH = 100%]
Pressure (altimeter): 29.91 inches Hg (1013.0 mb)
Winds: from the NE (40 degrees) at 2 MPH (2 knots; 1.0 m/s)
Visibility: 2.36 miles (3.80 km)
Ceiling: at least 12,000 feet AGL
Clouds: sky clear below 12,000 feet AGL
Weather: BR  (mist)

METAR text: UNTT 172030Z 00000MPS 3300 1400S BR NSC 13/12 Q1014 R21/090060 NOSIG RMK QFE745
Conditions at: UNTT (PLOTNIKOVO/TOMSK, RU) observed 2030 UTC 17 August 2019
Temperature: 13.0°C (55°F)
Dewpoint: 12.0°C (54°F) [RH = 94%]
Pressure (altimeter): 29.94 inches Hg (1014.0 mb)
Winds: calm
Visibility: 2.05 miles (3.30 km)
Ceiling: at least 12,000 feet AGL
Clouds: sky clear below 12,000 feet AGL
Weather: BR  (mist)

METAR text: UNTT 172000Z 36001MPS 4700 BR NSC 13/12 Q1013 R21/090060 NOSIG RMK QFE745
Conditions at: UNTT (PLOTNIKOVO/TOMSK, RU) observed 2000 UTC 17 August 2019
Temperature: 13.0°C (55°F)
Dewpoint: 12.0°C (54°F) [RH = 94%]
Pressure (altimeter): 29.91 inches Hg (1013.0 mb)
Winds: from the N (360 degrees) at 2 MPH (2 knots; 1.0 m/s)
Visibility: 2.92 miles (4.70 km)
Ceiling: at least 12,000 feet AGL
Clouds: sky clear below 12,000 feet AGL
Weather: BR  (mist)

METAR text: UNTT 171930Z 05001MPS 4600 BR NSC 14/13 Q1013 R21/090060 NOSIG RMK QFE745
Conditions at: UNTT (PLOTNIKOVO/TOMSK, RU) observed 1930 UTC 17 August 2019
Temperature: 14.0°C (57°F)
Dewpoint: 13.0°C (55°F) [RH = 94%]
Pressure (altimeter): 29.91 inches Hg (1013.0 mb)
Winds: from the NE (50 degrees) at 2 MPH (2 knots; 1.0 m/s)
Visibility: 2.86 miles (4.60 km)
Ceiling: at least 12,000 feet AGL
Clouds: sky clear below 12,000 feet AGL
Weather: BR  (mist)

METAR text: UNTT 171900Z 05001MPS 3900 BR NSC 13/13 Q1014 R21/090060 NOSIG RMK QFE745
Conditions at: UNTT (PLOTNIKOVO/TOMSK, RU) observed 1900 UTC 17 August 2019
Temperature: 13.0°C (55°F)
Dewpoint: 13.0°C (55°F) [RH = 100%]
Pressure (altimeter): 29.94 inches Hg (1014.0 mb)
Winds: from the NE (50 degrees) at 2 MPH (2 knots; 1.0 m/s)
Visibility: 2.42 miles (3.89 km)
Ceiling: at least 12,000 feet AGL
Clouds: sky clear below 12,000 feet AGL
Weather: BR  (mist)

METAR text: UNTT 171830Z 06001MPS 5000 BR NSC 14/13 Q1014 R21/090060 NOSIG RMK QFE745
Conditions at: UNTT (PLOTNIKOVO/TOMSK, RU) observed 1830 UTC 17 August 2019
Temperature: 14.0°C (57°F)
Dewpoint: 13.0°C (55°F) [RH = 94%]
Pressure (altimeter): 29.94 inches Hg (1014.0 mb)
Winds: from the ENE (60 degrees) at 2 MPH (2 knots; 1.0 m/s)
Visibility: 3 miles ( 5 km)
Ceiling: at least 12,000 feet AGL
Clouds: sky clear below 12,000 feet AGL
Weather: BR  (mist)

METAR text: UNTT 171800Z 02001MPS 6000 NSC 15/14 Q1014 R21/090060 NOSIG RMK QFE745
Conditions at: UNTT (PLOTNIKOVO/TOMSK, RU) observed 1800 UTC 17 August 2019
Temperature: 15.0°C (59°F)
Dewpoint: 14.0°C (57°F) [RH = 94%]
Pressure (altimeter): 29.94 inches Hg (1014.0 mb)
Winds: from the NNE (20 degrees) at 2 MPH (2 knots; 1.0 m/s)
Visibility: 4 miles ( 6 km)
Ceiling: at least 12,000 feet AGL
Clouds: sky clear below 12,000 feet AGL
Weather: no significant weather observed at this time

METAR text: UNTT 171730Z 03001MPS 5000 BR NSC 15/14 Q1014 R21/090060 NOSIG RMK QFE745
Conditions at: UNTT (PLOTNIKOVO/TOMSK, RU) observed 1730 UTC 17 August 2019
Temperature: 15.0°C (59°F)
Dewpoint: 14.0°C (57°F) [RH = 94%]
Pressure (altimeter): 29.94 inches Hg (1014.0 mb)
Winds: from the NNE (30 degrees) at 2 MPH (2 knots; 1.0 m/s)
Visibility: 3 miles ( 5 km)
Ceiling: at least 12,000 feet AGL
Clouds: sky clear below 12,000 feet AGL
Weather: BR  (mist)

METAR text: UNTT 171700Z 05001MPS 6000 NSC 15/14 Q1014 R21/090060 NOSIG RMK QFE745
Conditions at: UNTT (PLOTNIKOVO/TOMSK, RU) observed 1700 UTC 17 August 2019
Temperature: 15.0°C (59°F)
Dewpoint: 14.0°C (57°F) [RH = 94%]
Pressure (altimeter): 29.94 inches Hg (1014.0 mb)
Winds: from the NE (50 degrees) at 2 MPH (2 knots; 1.0 m/s)
Visibility: 4 miles ( 6 km)
Ceiling: at least 12,000 feet AGL
Clouds: sky clear below 12,000 feet AGL
Weather: no significant weather observed at this time

METAR text: UNTT 171630Z 01001MPS 6000 NSC 16/14 Q1014 R21/090060 NOSIG RMK QFE745
Conditions at: UNTT (PLOTNIKOVO/TOMSK, RU) observed 1630 UTC 17 August 2019
Temperature: 16.0°C (61°F)
Dewpoint: 14.0°C (57°F) [RH = 88%]
Pressure (altimeter): 29.94 inches Hg (1014.0 mb)
Winds: from the N (10 degrees) at 2 MPH (2 knots; 1.0 m/s)
Visibility: 4 miles ( 6 km)
Ceiling: at least 12,000 feet AGL
Clouds: sky clear below 12,000 feet AGL
Weather: no significant weather observed at this time

METAR text: UNTT 171600Z 03001MPS 7000 NSC 17/14 Q1014 R21/090060 NOSIG RMK QFE745
Conditions at: UNTT (PLOTNIKOVO/TOMSK, RU) observed 1600 UTC 17 August 2019
Temperature: 17.0°C (63°F)
Dewpoint: 14.0°C (57°F) [RH = 82%]
Pressure (altimeter): 29.94 inches Hg (1014.0 mb)
Winds: from the NNE (30 degrees) at 2 MPH (2 knots; 1.0 m/s)
Visibility: 4 miles ( 7 km)
Ceiling: at least 12,000 feet AGL
Clouds: sky clear below 12,000 feet AGL
Weather: no significant weather observed at this time

METAR text: UNTT 171500Z 07001MPS 7000 NSC 18/14 Q1014 R21/090060 NOSIG RMK QFE745
Conditions at: UNTT (PLOTNIKOVO/TOMSK, RU) observed 1500 UTC 17 August 2019
Temperature: 18.0°C (64°F)
Dewpoint: 14.0°C (57°F) [RH = 77%]
Pressure (altimeter): 29.94 inches Hg (1014.0 mb)
Winds: from the ENE (70 degrees) at 2 MPH (2 knots; 1.0 m/s)
Visibility: 4 miles ( 7 km)
Ceiling: at least 12,000 feet AGL
Clouds: sky clear below 12,000 feet AGL
Weather: no significant weather observed at this time

METAR text: UNTT 171430Z 06002MPS 7000 NSC 19/14 Q1014 R21/090060 NOSIG RMK QFE745
Conditions at: UNTT (PLOTNIKOVO/TOMSK, RU) observed 1430 UTC 17 August 2019
Temperature: 19.0°C (66°F)
Dewpoint: 14.0°C (57°F) [RH = 73%]
Pressure (altimeter): 29.94 inches Hg (1014.0 mb)
Winds: from the ENE (60 degrees) at 5 MPH (4 knots; 2.1 m/s)
Visibility: 4 miles ( 7 km)
Ceiling: at least 12,000 feet AGL
Clouds: sky clear below 12,000 feet AGL
Weather: no significant weather observed at this time

METAR text: UNTT 171400Z 05002MPS 8000 NSC 20/14 Q1013 R21/090060 NOSIG RMK QFE745
Conditions at: UNTT (PLOTNIKOVO/TOMSK, RU) observed 1400 UTC 17 August 2019
Temperature: 20.0°C (68°F)
Dewpoint: 14.0°C (57°F) [RH = 68%]
Pressure (altimeter): 29.91 inches Hg (1013.0 mb)
Winds: from the NE (50 degrees) at 5 MPH (4 knots; 2.1 m/s)
Visibility: 5 miles ( 8 km)
Ceiling: at least 12,000 feet AGL
Clouds: sky clear below 12,000 feet AGL
Weather: no significant weather observed at this time

METAR text: UNTT 171330Z 06002MPS 8000 NSC 21/14 Q1013 R03/090060 NOSIG RMK QFE743
Conditions at: UNTT (PLOTNIKOVO/TOMSK, RU) observed 1330 UTC 17 August 2019
Temperature: 21.0°C (70°F)
Dewpoint: 14.0°C (57°F) [RH = 64%]
Pressure (altimeter): 29.91 inches Hg (1013.0 mb)
Winds: from the ENE (60 degrees) at 5 MPH (4 knots; 2.1 m/s)
Visibility: 5 miles ( 8 km)
Ceiling: at least 12,000 feet AGL
Clouds: sky clear below 12,000 feet AGL
Weather: no significant weather observed at this time

METAR text: UNTT 171300Z 05002MPS 8000 NSC 22/14 Q1013 R03/090060 NOSIG RMK QFE743
Conditions at: UNTT (PLOTNIKOVO/TOMSK, RU) observed 1300 UTC 17 August 2019
Temperature: 22.0°C (72°F)
Dewpoint: 14.0°C (57°F) [RH = 60%]
Pressure (altimeter): 29.91 inches Hg (1013.0 mb)
Winds: from the NE (50 degrees) at 5 MPH (4 knots; 2.1 m/s)
Visibility: 5 miles ( 8 km)
Ceiling: at least 12,000 feet AGL
Clouds: sky clear below 12,000 feet AGL
Weather: no significant weather observed at this time

METAR text: UNTT 171230Z 06003MPS 9000 NSC 22/14 Q1013 R03/090060 NOSIG RMK QFE743
Conditions at: UNTT (PLOTNIKOVO/TOMSK, RU) observed 1230 UTC 17 August 2019
Temperature: 22.0°C (72°F)
Dewpoint: 14.0°C (57°F) [RH = 60%]
Pressure (altimeter): 29.91 inches Hg (1013.0 mb)
Winds: from the ENE (60 degrees) at 7 MPH (6 knots; 3.1 m/s)
Visibility: 6 miles ( 9 km)
Ceiling: at least 12,000 feet AGL
Clouds: sky clear below 12,000 feet AGL
Weather: no significant weather observed at this time

METAR text: UNTT 171200Z 07003MPS CAVOK 24/13 Q1013 R03/090060 NOSIG RMK QFE743
Conditions at: UNTT (PLOTNIKOVO/TOMSK, RU) observed 1200 UTC 17 August 2019
Temperature: 24.0°C (75°F)
Dewpoint: 13.0°C (55°F) [RH = 50%]
Pressure (altimeter): 29.91 inches Hg (1013.0 mb)
Winds: from the ENE (70 degrees) at 7 MPH (6 knots; 3.1 m/s)
Visibility: 6 or more miles (10+ km)
Ceiling: ceiling and visibility are OK
Clouds: unknown
Weather: no significant weather observed at this time

Forecast for: UNTT (PLOTNIKOVO/TOMSK, RU)
Text: TAF UNTT 182300Z 1900/1909 20003MPS 5000 FU SCT030CB
Forecast period: 0000 to 0900 UTC 19 August 2019
Forecast type: FROM: standard forecast or significant change
Winds: from the SSW (200 degrees) at 7 MPH (6 knots; 3.1 m/s)
Visibility: 3 miles (5 km)
Ceiling: at least 12,000 feet AGL
Clouds: scattered clouds at 3000 feet AGL
Weather: FU  (smoke)
Text: TEMPO 1900/1909 24005G10MPS 3100 -SHRA SCT011 BKN020CB
Forecast period: 0000 to 0900 UTC 19 August 2019
Forecast type: TEMPORARY: The following changes expected for less than half the time period
Winds: from the WSW (240 degrees) at 12 MPH (10 knots; 5.1 m/s)
gusting to 22 MPH (19 knots; 9.8 m/s)
Visibility: 1.93 miles (3.11 km)
Ceiling: 2000 feet AGL
Clouds: scattered clouds at 1100 feet AGL
broken clouds at 2000 feet AGL
Weather: -SHRA  (light rain showers)